createdAt,value
2019-05-17T00:00:47.714Z,31.90
2019-05-17T00:01:47.700Z,31.51
2019-05-17T00:02:47.682Z,31.60
2019-05-17T00:03:47.665Z,31.51
2019-05-17T00:04:47.659Z,31.60
2019-05-17T00:05:47.652Z,32.20
2019-05-17T00:06:47.838Z,32.20
2019-05-17T00:07:47.745Z,32.10
2019-05-17T00:08:47.630Z,32.10
2019-05-17T00:09:47.953Z,32.20
2019-05-17T00:10:47.595Z,32.20
2019-05-17T00:11:47.598Z,32.20
2019-05-17T00:12:47.581Z,32.10
2019-05-17T00:13:47.576Z,32.20
2019-05-17T00:14:47.554Z,32.50
2019-05-17T00:15:47.573Z,32.70
2019-05-17T00:16:47.543Z,32.70
2019-05-17T00:17:47.515Z,32.90
2019-05-17T00:18:47.521Z,32.80
2019-05-17T00:19:47.495Z,32.90
2019-05-17T00:20:47.502Z,32.60
2019-05-17T00:21:47.678Z,32.60
2019-05-17T00:22:47.470Z,32.60
2019-05-17T00:23:47.451Z,32.10
2019-05-17T00:24:47.827Z,32.60
2019-05-17T00:25:47.427Z,32.70
2019-05-17T00:26:47.439Z,32.60
2019-05-17T00:27:47.634Z,32.70
2019-05-17T00:28:47.394Z,32.70
2019-05-17T00:29:47.385Z,32.70
2019-05-17T00:30:47.383Z,32.80
2019-05-17T00:31:47.374Z,32.80
2019-05-17T00:32:48.235Z,32.80
2019-05-17T00:33:47.361Z,32.80
2019-05-17T00:34:47.333Z,32.70
2019-05-17T00:35:47.328Z,32.62
2019-05-17T00:36:47.343Z,32.70
2019-05-17T00:37:47.302Z,33.20
2019-05-17T00:38:51.218Z,32.80
2019-05-17T00:39:47.348Z,32.80
2019-05-17T00:40:47.274Z,32.71
2019-05-17T00:41:47.273Z,32.90
2019-05-17T00:42:47.266Z,33.00
2019-05-17T00:43:47.236Z,33.31
2019-05-17T00:44:47.516Z,32.42
2019-05-17T00:45:47.236Z,32.70
2019-05-17T00:46:47.220Z,33.40
2019-05-17T00:47:47.195Z,32.50
2019-05-17T00:48:47.216Z,32.30
2019-05-17T00:49:47.174Z,33.40
2019-05-17T00:50:53.150Z,32.80
2019-05-17T00:51:47.542Z,32.92
2019-05-17T00:52:47.596Z,32.60
2019-05-17T00:53:47.129Z,32.80
2019-05-17T00:54:47.121Z,32.80
2019-05-17T00:55:47.111Z,33.10
2019-05-17T00:56:47.121Z,32.80
2019-05-17T00:57:47.685Z,32.82
2019-05-17T00:58:47.778Z,32.71
2019-05-17T00:59:47.653Z,33.01
2019-05-17T01:00:47.871Z,32.90
2019-05-17T01:01:47.057Z,32.90
2019-05-17T01:02:47.080Z,32.80
2019-05-17T01:03:47.666Z,32.52
2019-05-17T01:04:47.641Z,32.90
2019-05-17T01:05:47.429Z,32.62
2019-05-17T01:06:47.129Z,32.92
2019-05-17T01:07:47.306Z,32.71
2019-05-17T01:08:59.405Z,32.62
2019-05-17T01:09:47.287Z,33.01
2019-05-17T01:10:47.490Z,33.22
2019-05-17T01:11:47.523Z,33.42
2019-05-17T01:12:48.191Z,33.12
2019-05-17T01:13:46.909Z,33.12
2019-05-17T01:14:46.907Z,32.71
2019-05-17T01:15:47.389Z,32.82
2019-05-17T01:16:47.532Z,33.22
2019-05-17T01:17:47.450Z,33.22
2019-05-17T01:18:47.092Z,32.82
2019-05-17T01:19:47.333Z,33.12
2019-05-17T01:20:47.469Z,32.82
2019-05-17T01:21:47.506Z,33.01
2019-05-17T01:22:47.454Z,32.82
2019-05-17T01:23:46.869Z,32.82
2019-05-17T01:24:46.798Z,33.22
2019-05-17T01:25:48.137Z,32.82
2019-05-17T01:26:47.019Z,33.01
2019-05-17T01:27:47.417Z,33.01
2019-05-17T01:28:46.822Z,33.01
2019-05-17T01:29:46.756Z,32.92
2019-05-17T01:30:46.747Z,32.92
2019-05-17T01:31:46.736Z,32.52
2019-05-17T01:32:46.767Z,32.92
2019-05-17T01:33:47.111Z,32.92
2019-05-17T01:34:47.022Z,32.71
2019-05-17T01:35:46.794Z,33.01
2019-05-17T01:36:46.678Z,33.01
2019-05-17T01:37:47.524Z,33.12
2019-05-17T01:38:46.950Z,33.01
2019-05-17T01:39:46.929Z,32.92
2019-05-17T01:40:46.620Z,32.71
2019-05-17T01:41:46.903Z,32.92
2019-05-17T01:42:46.877Z,32.92
2019-05-17T01:43:47.404Z,33.01
2019-05-17T01:44:47.263Z,33.01
2019-05-17T01:45:48.024Z,32.92
2019-05-17T01:46:46.700Z,33.12
2019-05-17T01:47:47.562Z,32.71
2019-05-17T01:48:47.075Z,33.01
2019-05-17T01:49:47.031Z,33.12
2019-05-17T01:50:46.588Z,32.92
2019-05-17T01:51:46.691Z,33.12
2019-05-17T01:52:46.527Z,33.12
2019-05-17T01:53:47.020Z,33.12
2019-05-17T01:54:47.046Z,33.12
2019-05-17T01:55:46.678Z,32.92
2019-05-17T01:56:46.459Z,33.31
2019-05-17T01:57:47.599Z,33.01
2019-05-17T01:58:46.982Z,33.03
2019-05-17T01:59:46.798Z,32.92
2019-05-17T02:00:46.660Z,32.92
2019-05-17T02:01:47.384Z,32.92
2019-05-17T02:02:47.142Z,33.53
2019-05-17T02:03:46.914Z,33.51
2019-05-17T02:04:46.800Z,33.01
2019-05-17T02:05:47.378Z,33.01
2019-05-17T02:06:46.783Z,33.01
2019-05-17T02:07:46.675Z,33.22
2019-05-17T02:08:47.494Z,33.12
2019-05-17T02:09:47.694Z,33.31
2019-05-17T02:10:46.645Z,33.22
2019-05-17T02:11:46.667Z,33.22
2019-05-17T02:12:49.129Z,33.31
2019-05-17T02:13:46.746Z,33.12
2019-05-17T02:14:46.750Z,33.51
2019-05-17T02:15:47.003Z,33.31
2019-05-17T02:16:46.741Z,33.22
2019-05-17T02:17:46.827Z,33.51
2019-05-17T02:18:46.614Z,33.51
2019-05-17T02:19:46.605Z,33.31
2019-05-17T02:20:46.479Z,33.22
2019-05-17T02:21:47.965Z,33.03
2019-05-17T02:22:47.466Z,33.22
2019-05-17T02:23:46.944Z,33.03
2019-05-17T02:24:46.487Z,33.22
2019-05-17T02:25:47.180Z,33.22
2019-05-17T02:26:46.568Z,33.03
2019-05-17T02:27:46.135Z,33.31
2019-05-17T02:28:46.113Z,33.33
2019-05-17T02:29:46.097Z,33.22
2019-05-17T02:30:46.113Z,33.23
2019-05-17T02:31:46.076Z,33.31
2019-05-17T02:32:46.052Z,33.43
2019-05-17T02:33:46.077Z,33.33
2019-05-17T02:34:46.055Z,33.03
2019-05-17T02:35:46.027Z,33.33
2019-05-17T02:36:46.018Z,33.33
2019-05-17T02:37:46.011Z,33.13
2019-05-17T02:38:46.006Z,33.33
2019-05-17T02:40:01.049Z,33.03
2019-05-17T02:40:45.993Z,33.43
2019-05-17T02:41:45.959Z,32.93
2019-05-17T02:42:45.953Z,32.71
2019-05-17T02:43:45.969Z,33.42
2019-05-17T02:44:45.944Z,32.93
2019-05-17T02:45:45.946Z,33.12
2019-05-17T02:46:45.920Z,32.71
2019-05-17T02:47:45.897Z,33.12
2019-05-17T02:48:45.901Z,32.93
2019-05-17T02:49:45.890Z,32.93
2019-05-17T02:50:48.315Z,32.93
2019-05-17T02:51:45.854Z,32.93
2019-05-17T02:52:45.860Z,32.73
2019-05-17T02:53:45.860Z,33.03
2019-05-17T02:54:45.823Z,32.73
2019-05-17T02:55:45.823Z,32.93
2019-05-17T02:56:45.809Z,32.73
2019-05-17T02:57:45.793Z,32.93
2019-05-17T02:58:45.801Z,32.83
2019-05-17T02:59:45.783Z,32.73
2019-05-17T03:00:45.769Z,32.83
2019-05-17T03:01:45.751Z,32.93
2019-05-17T03:02:45.793Z,32.93
2019-05-17T03:03:45.763Z,33.03
2019-05-17T03:04:45.743Z,33.03
2019-05-17T03:05:45.794Z,33.03
2019-05-17T03:06:45.688Z,32.83
2019-05-17T03:07:45.686Z,32.83
2019-05-17T03:08:45.683Z,32.83
2019-05-17T03:09:45.666Z,32.83
2019-05-17T03:10:45.660Z,32.63
2019-05-17T03:11:45.732Z,32.83
2019-05-17T03:12:45.636Z,33.43
2019-05-17T03:13:45.623Z,32.83
2019-05-17T03:14:45.612Z,33.23
2019-05-17T03:15:45.598Z,32.83
2019-05-17T03:16:45.602Z,33.03
2019-05-17T03:17:45.586Z,33.03
2019-05-17T03:18:45.578Z,32.83
2019-05-17T03:19:45.559Z,32.83
2019-05-17T03:20:45.571Z,33.03
2019-05-17T03:21:45.530Z,32.95
2019-05-17T03:22:45.531Z,32.83
2019-05-17T03:23:45.529Z,32.93
2019-05-17T03:24:45.501Z,32.93
2019-05-17T03:25:45.486Z,32.93
2019-05-17T03:26:45.480Z,32.93
2019-05-17T03:27:45.469Z,32.95
2019-05-17T03:28:45.479Z,32.85
2019-05-17T03:29:45.439Z,32.93
2019-05-17T03:30:47.244Z,32.93
2019-05-17T03:31:57.490Z,32.95
2019-05-17T03:32:47.723Z,32.93
2019-05-17T03:33:46.468Z,32.93
2019-05-17T03:34:45.396Z,32.83
2019-05-17T03:35:46.215Z,32.95
2019-05-17T03:36:46.669Z,32.93
2019-05-17T03:37:45.375Z,32.55
2019-05-17T03:38:45.363Z,32.95
2019-05-17T03:39:45.347Z,32.53
2019-05-17T03:41:07.654Z,32.65
2019-05-17T03:41:45.312Z,32.65
2019-05-17T03:42:45.307Z,33.23
2019-05-17T03:43:45.302Z,32.53
2019-05-17T03:44:45.283Z,32.53
2019-05-17T03:45:45.283Z,32.53
2019-05-17T03:46:45.279Z,32.93
2019-05-17T03:47:45.254Z,32.63
2019-05-17T03:48:45.249Z,32.63
2019-05-17T03:49:45.230Z,32.63
2019-05-17T03:50:45.217Z,32.63
2019-05-17T03:51:45.215Z,32.55
2019-05-17T03:52:45.214Z,32.53
2019-05-17T03:53:45.187Z,32.65
2019-05-17T03:54:45.191Z,32.63
2019-05-17T03:55:45.162Z,32.65
2019-05-17T03:56:45.154Z,32.63
2019-05-17T03:57:45.154Z,32.53
2019-05-17T03:58:45.141Z,33.03
2019-05-17T03:59:45.159Z,32.55
2019-05-17T04:00:45.143Z,32.23
2019-05-17T04:01:45.102Z,32.53
2019-05-17T04:02:45.118Z,32.23
2019-05-17T04:03:45.094Z,32.25
2019-05-17T04:04:45.083Z,32.23
2019-05-17T04:05:45.065Z,32.55
2019-05-17T04:06:45.048Z,32.25
2019-05-17T04:07:45.062Z,33.15
2019-05-17T04:08:45.034Z,32.25
2019-05-17T04:09:45.031Z,32.45
2019-05-17T04:10:45.058Z,32.95
2019-05-17T04:11:45.013Z,33.25
2019-05-17T04:12:44.992Z,32.95
2019-05-17T04:13:44.967Z,32.35
2019-05-17T04:14:44.998Z,33.54
2019-05-17T04:15:44.982Z,33.25
2019-05-17T04:16:44.936Z,33.25
2019-05-17T04:17:44.929Z,33.25
2019-05-17T04:18:44.940Z,33.25
2019-05-17T04:19:44.916Z,33.54
2019-05-17T04:20:44.904Z,33.35
2019-05-17T04:21:44.902Z,33.75
2019-05-17T04:22:44.931Z,33.75
2019-05-17T04:23:44.865Z,33.84
2019-05-17T04:24:44.865Z,34.05
2019-05-17T04:25:44.846Z,33.54
2019-05-17T04:26:44.837Z,33.25
2019-05-17T04:27:44.814Z,33.35
2019-05-17T04:28:44.816Z,33.35
2019-05-17T04:29:44.817Z,33.35
2019-05-17T04:30:44.795Z,32.95
2019-05-17T04:31:44.780Z,33.75
2019-05-17T04:32:44.860Z,33.15
2019-05-17T04:33:44.749Z,32.95
2019-05-17T04:34:44.779Z,33.45
2019-05-17T04:35:44.733Z,33.84
2019-05-17T04:36:44.732Z,33.84
2019-05-17T04:37:45.226Z,33.45
2019-05-17T04:38:44.728Z,33.65
2019-05-17T04:39:44.695Z,33.75
2019-05-17T04:40:44.690Z,33.65
2019-05-17T04:41:49.357Z,33.84
2019-05-17T04:42:44.863Z,33.54
2019-05-17T04:43:44.642Z,33.25
2019-05-17T04:44:44.651Z,33.45
2019-05-17T04:45:44.624Z,33.54
2019-05-17T04:46:44.645Z,33.45
2019-05-17T04:47:44.967Z,33.65
2019-05-17T04:48:44.596Z,33.65
2019-05-17T04:49:44.591Z,33.65
2019-05-17T04:50:44.575Z,33.54
2019-05-17T04:51:44.568Z,33.65
2019-05-17T04:52:44.610Z,33.65
2019-05-17T04:53:44.543Z,33.65
2019-05-17T04:54:44.539Z,33.25
2019-05-17T04:55:44.518Z,33.65
2019-05-17T04:56:44.510Z,33.54
2019-05-17T04:57:44.595Z,33.75
2019-05-17T04:58:44.495Z,33.53
2019-05-17T04:59:44.481Z,33.73
2019-05-17T05:00:44.466Z,33.65
2019-05-17T05:01:44.449Z,33.84
2019-05-17T05:02:44.558Z,33.84
2019-05-17T05:03:44.428Z,33.43
2019-05-17T05:04:44.430Z,33.75
2019-05-17T05:05:44.428Z,33.53
2019-05-17T05:06:44.395Z,33.93
2019-05-17T05:07:44.403Z,33.45
2019-05-17T05:08:44.367Z,33.63
2019-05-17T05:09:44.367Z,33.53
2019-05-17T05:10:44.372Z,33.53
2019-05-17T05:11:59.500Z,33.25
2019-05-17T05:12:44.449Z,34.03
2019-05-17T05:13:44.330Z,33.83
2019-05-17T05:14:44.302Z,34.03
2019-05-17T05:15:44.887Z,34.03
2019-05-17T05:16:44.290Z,34.53
2019-05-17T05:17:44.273Z,33.84
2019-05-17T05:18:44.279Z,34.03
2019-05-17T05:19:44.268Z,33.83
2019-05-17T05:20:44.456Z,33.93
2019-05-17T05:21:44.233Z,34.03
2019-05-17T05:22:44.219Z,33.93
2019-05-17T05:23:44.207Z,33.83
2019-05-17T05:24:47.168Z,34.13
2019-05-17T05:25:44.209Z,34.13
2019-05-17T05:26:44.179Z,34.01
2019-05-17T05:27:44.165Z,34.03
2019-05-17T05:28:44.153Z,34.03
2019-05-17T05:29:44.140Z,34.13
2019-05-17T05:30:44.160Z,34.13
2019-05-17T05:31:44.147Z,33.93
2019-05-17T05:32:44.126Z,33.91
2019-05-17T05:33:44.103Z,34.11
2019-05-17T05:34:46.416Z,33.72
2019-05-17T05:35:44.094Z,33.91
2019-05-17T05:36:44.080Z,33.43
2019-05-17T05:37:44.074Z,33.31
2019-05-17T05:38:44.046Z,33.81
2019-05-17T05:39:44.063Z,34.01
2019-05-17T05:40:44.076Z,33.72
2019-05-17T05:41:44.032Z,33.72
2019-05-17T05:42:44.005Z,33.81
2019-05-17T05:43:43.999Z,34.31
2019-05-17T05:44:43.998Z,33.81
2019-05-17T05:45:43.990Z,34.61
2019-05-17T05:46:43.963Z,35.11
2019-05-17T05:47:43.961Z,34.71
2019-05-17T05:48:44.011Z,35.21
2019-05-17T05:49:43.935Z,35.81
2019-05-17T05:50:43.930Z,35.91
2019-05-17T05:51:43.912Z,35.61
2019-05-17T05:52:43.933Z,35.71
2019-05-17T05:53:43.885Z,36.21
2019-05-17T05:54:43.892Z,35.71
2019-05-17T05:55:43.874Z,35.91
2019-05-17T05:56:44.073Z,36.21
2019-05-17T05:57:43.842Z,36.80
2019-05-17T05:58:43.832Z,37.70
2019-05-17T05:59:43.838Z,37.30
2019-05-17T06:00:43.845Z,37.70
2019-05-17T06:01:43.798Z,37.81
2019-05-17T06:02:43.789Z,38.00
2019-05-17T06:03:43.781Z,38.42
2019-05-17T06:04:43.772Z,38.80
2019-05-17T06:05:43.787Z,39.32
2019-05-17T06:06:43.755Z,39.22
2019-05-17T06:07:43.745Z,39.22
2019-05-17T06:08:43.728Z,39.04
2019-05-17T06:09:43.743Z,39.34
2019-05-17T06:10:43.727Z,39.43
2019-05-17T06:11:43.703Z,39.94
2019-05-17T06:12:43.821Z,39.04
2019-05-17T06:13:43.690Z,39.94
2019-05-17T06:14:43.669Z,39.15
2019-05-17T06:15:43.692Z,39.34
2019-05-17T06:16:43.654Z,40.16
2019-05-17T06:17:43.657Z,40.45
2019-05-17T06:18:43.616Z,39.76
2019-05-17T06:19:43.627Z,39.95
2019-05-17T06:20:43.612Z,39.86
2019-05-17T06:21:43.592Z,39.86
2019-05-17T06:22:43.578Z,40.06
2019-05-17T06:23:43.597Z,39.95
2019-05-17T06:24:43.558Z,39.86
2019-05-17T06:25:43.978Z,39.78
2019-05-17T06:26:43.534Z,41.08
2019-05-17T06:27:43.530Z,40.88
2019-05-17T06:28:43.522Z,41.05
2019-05-17T06:29:43.508Z,40.17
2019-05-17T06:30:43.532Z,41.08
2019-05-17T06:31:43.559Z,41.17
2019-05-17T06:32:43.710Z,41.47
2019-05-17T06:33:43.462Z,41.27
2019-05-17T06:34:43.444Z,41.27
2019-05-17T06:35:43.472Z,41.47
2019-05-17T06:36:43.445Z,41.47
2019-05-17T06:37:43.420Z,41.38
2019-05-17T06:38:43.406Z,41.17
2019-05-17T06:39:43.400Z,41.58
2019-05-17T06:40:43.395Z,41.47
2019-05-17T06:41:43.391Z,42.38
2019-05-17T06:42:45.506Z,41.88
2019-05-17T06:43:43.385Z,41.88
2019-05-17T06:44:43.353Z,41.99
2019-05-17T06:45:43.477Z,42.29
2019-05-17T06:46:43.336Z,41.99
2019-05-17T06:47:43.325Z,41.58
2019-05-17T06:48:43.315Z,41.49
2019-05-17T06:49:43.616Z,42.29
2019-05-17T06:50:43.403Z,41.77
2019-05-17T06:51:43.269Z,41.80
2019-05-17T06:52:43.886Z,41.80
2019-05-17T06:53:43.675Z,42.19
2019-05-17T06:54:43.238Z,42.29
2019-05-17T06:55:43.236Z,41.60
2019-05-17T06:56:43.861Z,41.49
2019-05-17T06:57:43.655Z,41.60
2019-05-17T06:58:43.201Z,41.69
2019-05-17T06:59:43.201Z,41.99
2019-05-17T07:00:43.176Z,41.60
2019-05-17T07:01:43.177Z,42.40
2019-05-17T07:02:43.165Z,42.60
2019-05-17T07:03:43.161Z,41.80
2019-05-17T07:04:43.130Z,42.60
2019-05-17T07:05:43.154Z,41.69
2019-05-17T07:06:43.119Z,42.40
2019-05-17T07:07:43.359Z,42.49
2019-05-17T07:08:43.093Z,42.19
2019-05-17T07:09:43.078Z,42.29
2019-05-17T07:10:43.080Z,42.10
2019-05-17T07:11:43.060Z,42.02
2019-05-17T07:12:55.086Z,42.41
2019-05-17T07:13:43.035Z,42.21
2019-05-17T07:14:43.030Z,42.60
2019-05-17T07:15:47.175Z,42.61
2019-05-17T07:16:43.033Z,41.91
2019-05-17T07:17:44.768Z,42.60
2019-05-17T07:18:43.368Z,41.89
2019-05-17T07:19:42.990Z,42.49
2019-05-17T07:20:42.951Z,42.32
2019-05-17T07:21:42.962Z,42.61
2019-05-17T07:22:42.979Z,43.21
2019-05-17T07:23:45.938Z,43.12
2019-05-17T07:24:42.930Z,43.21
2019-05-17T07:25:42.906Z,43.41
2019-05-17T07:26:42.893Z,42.71
2019-05-17T07:27:45.884Z,43.19
2019-05-17T07:28:42.907Z,42.52
2019-05-17T07:29:42.852Z,41.99
2019-05-17T07:30:42.863Z,42.40
2019-05-17T07:31:42.838Z,42.49
2019-05-17T07:32:42.830Z,42.71
2019-05-17T07:33:42.815Z,42.71
2019-05-17T07:34:43.096Z,41.80
2019-05-17T07:35:42.784Z,41.60
2019-05-17T07:36:42.782Z,41.49
2019-05-17T07:37:42.811Z,41.60
2019-05-17T07:38:42.781Z,42.10
2019-05-17T07:39:42.754Z,41.60
2019-05-17T07:40:42.750Z,41.89
2019-05-17T07:41:42.751Z,42.18
2019-05-17T07:42:42.735Z,42.18
2019-05-17T07:43:42.836Z,42.49
2019-05-17T07:44:44.103Z,43.07
2019-05-17T07:45:42.700Z,43.27
2019-05-17T07:46:42.671Z,43.18
2019-05-17T07:47:42.707Z,42.97
2019-05-17T07:48:42.654Z,43.65
2019-05-17T07:49:42.646Z,44.87
2019-05-17T07:50:42.644Z,43.65
2019-05-17T07:51:42.681Z,43.85
2019-05-17T07:52:42.642Z,43.25
2019-05-17T07:53:42.619Z,43.45
2019-05-17T07:54:42.619Z,43.55
2019-05-17T07:55:42.595Z,43.85
2019-05-17T07:56:42.572Z,43.75
2019-05-17T07:57:42.559Z,43.73
2019-05-17T07:58:42.558Z,43.53
2019-05-17T07:59:42.534Z,43.73
2019-05-17T08:00:42.878Z,43.43
2019-05-17T08:01:42.512Z,43.73
2019-05-17T08:02:42.525Z,43.53
2019-05-17T08:03:42.507Z,43.71
2019-05-17T08:04:42.486Z,43.91
2019-05-17T08:05:42.507Z,43.43
2019-05-17T08:06:42.466Z,43.61
2019-05-17T08:07:42.454Z,43.61
2019-05-17T08:08:42.477Z,43.61
2019-05-17T08:09:42.447Z,43.51
2019-05-17T08:10:42.409Z,43.61
2019-05-17T08:11:42.413Z,43.61
2019-05-17T08:12:42.387Z,43.71
2019-05-17T08:13:42.439Z,43.41
2019-05-17T08:14:42.383Z,42.81
2019-05-17T08:15:42.398Z,43.11
2019-05-17T08:16:42.344Z,43.21
2019-05-17T08:17:42.339Z,43.01
2019-05-17T08:18:42.337Z,43.51
2019-05-17T08:19:42.320Z,43.61
2019-05-17T08:20:42.316Z,43.41
2019-05-17T08:21:42.303Z,43.31
2019-05-17T08:22:42.315Z,43.51
2019-05-17T08:23:42.286Z,43.31
2019-05-17T08:24:42.277Z,43.31
2019-05-17T08:25:52.739Z,43.11
2019-05-17T08:26:42.240Z,43.59
2019-05-17T08:27:42.266Z,43.51
2019-05-17T08:28:42.242Z,43.29
2019-05-17T08:29:44.703Z,43.31
2019-05-17T08:30:42.243Z,43.29
2019-05-17T08:31:42.191Z,43.61
2019-05-17T08:32:42.176Z,43.21
2019-05-17T08:33:42.176Z,43.29
2019-05-17T08:34:42.170Z,43.19
2019-05-17T08:35:42.155Z,43.59
2019-05-17T08:36:42.133Z,43.39
2019-05-17T08:37:43.812Z,43.49
2019-05-17T08:38:42.119Z,42.59
2019-05-17T08:39:45.303Z,42.89
2019-05-17T08:40:42.187Z,42.69
2019-05-17T08:41:42.103Z,42.59
2019-05-17T08:42:42.094Z,42.99
2019-05-17T08:43:46.717Z,42.79
2019-05-17T08:44:42.063Z,42.79
2019-05-17T08:45:42.034Z,42.61
2019-05-17T08:46:42.036Z,43.09
2019-05-17T08:47:42.007Z,42.59
2019-05-17T08:48:42.019Z,43.19
2019-05-17T08:49:42.009Z,43.29
2019-05-17T08:50:41.987Z,43.31
2019-05-17T08:51:42.011Z,43.41
2019-05-17T08:52:41.970Z,43.41
2019-05-17T08:53:41.969Z,43.11
2019-05-17T08:54:42.934Z,42.99
2019-05-17T08:55:41.933Z,43.31
2019-05-17T08:56:41.918Z,43.01
2019-05-17T08:57:41.915Z,43.01
2019-05-17T08:58:41.964Z,42.79
2019-05-17T08:59:44.322Z,43.09
2019-05-17T09:00:41.868Z,42.91
2019-05-17T09:01:44.843Z,43.11
2019-05-17T09:02:41.993Z,42.91
2019-05-17T09:03:41.846Z,43.11
2019-05-17T09:04:44.839Z,43.11
2019-05-17T09:05:42.113Z,43.11
2019-05-17T09:06:41.813Z,43.61
2019-05-17T09:07:41.819Z,44.01
2019-05-17T09:08:41.805Z,43.61
2019-05-17T09:09:42.194Z,43.61
2019-05-17T09:10:41.927Z,43.41
2019-05-17T09:11:41.769Z,43.01
2019-05-17T09:12:41.749Z,43.51
2019-05-17T09:13:54.559Z,43.71
2019-05-17T09:14:41.754Z,43.71
2019-05-17T09:15:41.711Z,43.61
2019-05-17T09:16:41.713Z,43.51
2019-05-17T09:17:41.701Z,43.01
2019-05-17T09:18:41.697Z,42.81
2019-05-17T09:19:41.699Z,43.01
2019-05-17T09:20:41.665Z,43.01
2019-05-17T09:21:41.659Z,43.11
2019-05-17T09:22:41.626Z,43.11
2019-05-17T09:23:41.660Z,43.19
2019-05-17T09:24:41.614Z,43.21
2019-05-17T09:25:41.650Z,43.11
2019-05-17T09:26:41.597Z,42.91
2019-05-17T09:27:41.582Z,42.59
2019-05-17T09:28:41.581Z,43.59
2019-05-17T09:29:41.580Z,43.79
2019-05-17T09:30:41.576Z,43.79
2019-05-17T09:31:41.538Z,43.71
2019-05-17T09:32:41.541Z,44.31
2019-05-17T09:33:41.532Z,44.09
2019-05-17T09:34:41.502Z,44.21
2019-05-17T09:35:41.502Z,44.41
2019-05-17T09:36:41.499Z,44.81
2019-05-17T09:37:41.791Z,44.49
2019-05-17T09:38:41.521Z,43.49
2019-05-17T09:39:41.465Z,43.29
2019-05-17T09:40:41.440Z,43.61
2019-05-17T09:41:41.572Z,43.51
2019-05-17T09:42:41.574Z,44.41
2019-05-17T09:43:41.414Z,45.40
2019-05-17T09:44:41.407Z,45.01
2019-05-17T09:45:41.387Z,45.21
2019-05-17T09:46:41.382Z,44.91
2019-05-17T09:47:41.392Z,44.93
2019-05-17T09:48:41.391Z,45.13
2019-05-17T09:49:41.369Z,45.10
2019-05-17T09:50:41.354Z,44.31
2019-05-17T09:51:41.334Z,44.81
2019-05-17T09:52:41.325Z,45.13
2019-05-17T09:53:41.304Z,45.10
2019-05-17T09:54:45.006Z,45.43
2019-05-17T09:55:41.332Z,45.21
2019-05-17T09:56:41.277Z,44.31
2019-05-17T09:57:41.292Z,45.23
2019-05-17T09:58:44.249Z,45.40
2019-05-17T09:59:41.243Z,45.10
2019-05-17T10:00:41.241Z,44.61
2019-05-17T10:01:41.220Z,44.91
2019-05-17T10:02:41.203Z,45.01
2019-05-17T10:03:41.211Z,45.13
2019-05-17T10:04:41.196Z,44.81
2019-05-17T10:05:41.176Z,45.10
2019-05-17T10:06:41.202Z,45.21
2019-05-17T10:07:41.157Z,44.91
2019-05-17T10:08:41.156Z,44.13
2019-05-17T10:09:41.146Z,45.23
2019-05-17T10:10:41.125Z,45.21
2019-05-17T10:11:41.107Z,44.93
2019-05-17T10:12:41.109Z,45.33
2019-05-17T10:13:41.085Z,45.13
2019-05-17T10:14:41.107Z,45.03
2019-05-17T10:15:41.189Z,45.05
2019-05-17T10:16:42.263Z,45.05
2019-05-17T10:17:41.046Z,44.93
2019-05-17T10:18:41.024Z,44.85
2019-05-17T10:19:41.041Z,44.85
2019-05-17T10:20:41.018Z,45.15
2019-05-17T10:21:41.004Z,44.85
2019-05-17T10:22:40.984Z,44.65
2019-05-17T10:23:41.095Z,44.95
2019-05-17T10:24:42.371Z,45.05
2019-05-17T10:25:40.954Z,45.55
2019-05-17T10:26:40.974Z,45.25
2019-05-17T10:27:41.019Z,45.05
2019-05-17T10:28:40.919Z,44.85
2019-05-17T10:29:40.931Z,44.65
2019-05-17T10:30:40.914Z,44.75
2019-05-17T10:31:40.914Z,44.75
2019-05-17T10:32:41.218Z,45.05
2019-05-17T10:33:40.864Z,44.85
2019-05-17T10:34:40.884Z,44.85
2019-05-17T10:35:41.009Z,45.35
2019-05-17T10:36:40.896Z,45.65
2019-05-17T10:37:41.045Z,45.35
2019-05-17T10:38:41.664Z,45.15
2019-05-17T10:39:41.677Z,45.53
2019-05-17T10:40:41.279Z,45.05
2019-05-17T10:41:40.920Z,44.85
2019-05-17T10:42:40.775Z,44.83
2019-05-17T10:43:40.814Z,44.73
2019-05-17T10:44:47.174Z,44.73
2019-05-17T10:45:40.757Z,45.03
2019-05-17T10:46:40.867Z,45.43
2019-05-17T10:47:40.715Z,44.63
2019-05-17T10:48:41.227Z,44.93
2019-05-17T10:49:40.704Z,44.91
2019-05-17T10:50:41.026Z,44.63
2019-05-17T10:51:40.699Z,45.43
2019-05-17T10:52:41.276Z,45.01
2019-05-17T10:53:40.670Z,45.23
2019-05-17T10:54:40.662Z,44.81
2019-05-17T10:55:40.630Z,44.81
2019-05-17T10:56:40.632Z,44.91
2019-05-17T10:57:40.617Z,44.41
2019-05-17T10:58:40.603Z,44.81
2019-05-17T10:59:40.625Z,45.10
2019-05-17T11:00:41.600Z,44.11
2019-05-17T11:01:40.566Z,45.01
2019-05-17T11:02:40.598Z,45.21
2019-05-17T11:03:40.570Z,45.01
2019-05-17T11:04:40.563Z,44.71
2019-05-17T11:05:40.600Z,45.10
2019-05-17T11:06:40.514Z,44.91
2019-05-17T11:07:40.523Z,44.81
2019-05-17T11:08:40.517Z,44.89
2019-05-17T11:09:40.748Z,45.01
2019-05-17T11:10:40.501Z,45.01
2019-05-17T11:11:40.460Z,45.01
2019-05-17T11:12:40.440Z,44.41
2019-05-17T11:13:40.464Z,44.99
2019-05-17T11:14:52.188Z,44.91
2019-05-17T11:15:40.444Z,44.49
2019-05-17T11:16:40.423Z,44.49
2019-05-17T11:17:40.423Z,45.10
2019-05-17T11:18:40.381Z,44.29
2019-05-17T11:19:40.523Z,44.89
2019-05-17T11:20:40.375Z,44.91
2019-05-17T11:21:40.379Z,44.79
2019-05-17T11:22:40.438Z,44.61
2019-05-17T11:23:40.333Z,44.89
2019-05-17T11:24:40.320Z,45.29
2019-05-17T11:25:45.545Z,44.99
2019-05-17T11:26:43.341Z,45.31
2019-05-17T11:27:40.311Z,44.69
2019-05-17T11:28:40.287Z,45.29
2019-05-17T11:29:40.275Z,44.19
2019-05-17T11:30:40.281Z,44.38
2019-05-17T11:31:40.255Z,45.09
2019-05-17T11:32:40.235Z,44.31
2019-05-17T11:33:40.223Z,45.29
2019-05-17T11:34:40.209Z,45.10
2019-05-17T11:35:40.376Z,45.18
2019-05-17T11:36:40.195Z,44.59
2019-05-17T11:37:40.233Z,44.79
2019-05-17T11:38:40.183Z,44.99
2019-05-17T11:39:40.159Z,44.29
2019-05-17T11:40:40.748Z,44.38
2019-05-17T11:41:40.155Z,44.79
2019-05-17T11:42:40.121Z,45.09
2019-05-17T11:43:40.151Z,45.09
2019-05-17T11:44:40.102Z,45.09
2019-05-17T11:45:40.110Z,44.79
2019-05-17T11:46:40.105Z,45.09
2019-05-17T11:47:40.069Z,44.09
2019-05-17T11:48:40.108Z,44.09
2019-05-17T11:49:40.041Z,44.89
2019-05-17T11:50:40.070Z,44.79
2019-05-17T11:51:40.046Z,44.79
2019-05-17T11:52:40.025Z,44.69
2019-05-17T11:53:40.005Z,44.99
2019-05-17T11:54:39.989Z,44.99
2019-05-17T11:55:40.001Z,44.79
2019-05-17T11:56:39.978Z,44.79
2019-05-17T11:57:39.971Z,44.59
2019-05-17T11:58:39.968Z,44.89
2019-05-17T11:59:39.935Z,44.89
2019-05-17T12:00:42.869Z,44.99
2019-05-17T12:01:39.922Z,44.49
2019-05-17T12:02:39.920Z,44.38
2019-05-17T12:03:39.899Z,44.19
2019-05-17T12:04:39.896Z,44.49
2019-05-17T12:05:39.894Z,43.99
2019-05-17T12:06:39.894Z,43.69
2019-05-17T12:07:39.857Z,43.99
2019-05-17T12:08:39.848Z,43.89
2019-05-17T12:09:39.837Z,44.19
2019-05-17T12:10:39.950Z,44.37
2019-05-17T12:11:39.830Z,44.17
2019-05-17T12:12:39.810Z,44.19
2019-05-17T12:13:43.369Z,44.17
2019-05-17T12:14:39.829Z,44.57
2019-05-17T12:15:45.211Z,44.76
2019-05-17T12:16:39.765Z,44.27
2019-05-17T12:17:39.765Z,43.87
2019-05-17T12:18:39.754Z,44.07
2019-05-17T12:19:39.742Z,44.27
2019-05-17T12:20:39.724Z,43.87
2019-05-17T12:21:39.714Z,44.37
2019-05-17T12:22:39.710Z,44.27
2019-05-17T12:23:39.681Z,44.27
2019-05-17T12:24:39.692Z,44.37
2019-05-17T12:25:39.708Z,43.87
2019-05-17T12:26:39.690Z,43.87
2019-05-17T12:27:39.636Z,44.37
2019-05-17T12:28:39.624Z,44.24
2019-05-17T12:29:39.619Z,44.27
2019-05-17T12:30:39.628Z,43.57
2019-05-17T12:31:39.595Z,43.67
2019-05-17T12:32:39.606Z,43.35
2019-05-17T12:33:39.589Z,43.35
2019-05-17T12:34:39.600Z,43.47
2019-05-17T12:35:39.565Z,43.65
2019-05-17T12:36:39.550Z,43.47
2019-05-17T12:37:42.370Z,43.65
2019-05-17T12:38:39.589Z,43.45
2019-05-17T12:39:39.526Z,43.55
2019-05-17T12:40:39.520Z,43.55
2019-05-17T12:41:39.492Z,43.45
2019-05-17T12:42:39.484Z,43.65
2019-05-17T12:43:39.464Z,43.65
2019-05-17T12:44:39.463Z,43.55
2019-05-17T12:45:39.461Z,43.45
2019-05-17T12:46:39.438Z,43.65
2019-05-17T12:47:39.436Z,43.65
2019-05-17T12:48:39.421Z,43.55
2019-05-17T12:49:39.418Z,43.03
2019-05-17T12:50:39.420Z,43.23
2019-05-17T12:51:39.379Z,43.35
2019-05-17T12:52:39.564Z,42.53